Time;durP1;ratioP1;P1;durP2;ratioP2;P2;SDS_P1;SDS_P2;PMS_P1;PMS_P2;Temp;Humidity;BMP_temperature;BMP_pressure;BME280_temperature;BME280_humidity;BME280_pressure;Samples;Min_cycle;Max_cycle;Signal;HPM_P1;HPM_P2
2021/10/17 00:00:15;;;;;;;53.28;37.17;;;230.90;2252.80;;;;;;5059844;28;20798;-75
2021/10/17 00:02:41;;;;;;;54.55;36.30;;;230.90;2252.80;;;;;;5073139;28;20020;-76
2021/10/17 00:05:09;;;;;;;52.65;35.95;;;230.80;2252.80;;;;;;5067145;28;20025;-76
2021/10/17 00:07:35;;;;;;;60.55;38.28;;;230.60;2252.80;;;;;;5058575;28;20021;-76
2021/10/17 00:10:03;;;;;;;63.20;37.60;;;230.60;2252.80;;;;;;5055158;28;20031;-76
2021/10/17 00:12:29;;;;;;;59.85;38.40;;;230.60;2252.80;;;;;;5055321;28;20036;-76
2021/10/17 00:14:54;;;;;;;61.90;38.38;;;230.50;2252.80;;;;;;5072555;28;20497;-77
2021/10/17 00:17:20;;;;;;;62.85;39.45;;;230.40;2252.80;;;;;;5068948;28;20075;-76
2021/10/17 00:19:46;;;;;;;61.78;37.13;;;230.40;2252.80;;;;;;5060283;28;20059;-76
2021/10/17 00:22:11;;;;;;;57.05;37.63;;;230.40;2252.80;;;;;;5069995;28;20387;-76
2021/10/17 00:24:37;;;;;;;56.83;39.50;;;230.40;2252.80;;;;;;5054605;28;20114;-76
2021/10/17 00:27:03;;;;;;;61.72;39.50;;;230.40;2252.80;;;;;;5071645;28;20078;-76
2021/10/17 00:29:29;;;;;;;54.15;37.80;;;205.70;2252.80;;;;;;5054302;28;20032;-77
2021/10/17 00:31:55;;;;;;;59.88;38.22;;;205.60;2252.80;;;;;;5072948;28;20024;-76
2021/10/17 00:34:21;;;;;;;61.25;39.38;;;205.50;2252.80;;;;;;5072475;28;20051;-76
2021/10/17 00:36:47;;;;;;;62.53;38.90;;;205.50;2252.80;;;;;;5072781;28;20472;-76
2021/10/17 00:39:13;;;;;;;58.90;41.15;;;205.40;2252.80;;;;;;5063961;28;20032;-76
2021/10/17 00:41:39;;;;;;;58.88;38.33;;;205.50;2252.80;;;;;;5072226;28;20038;-76
2021/10/17 00:44:05;;;;;;;63.30;36.88;;;205.50;2252.80;;;;;;5072703;28;20025;-76
2021/10/17 00:46:31;;;;;;;67.40;40.10;;;205.50;2252.80;;;;;;5067735;28;20020;-77
2021/10/17 00:48:57;;;;;;;63.65;39.38;;;205.50;2252.80;;;;;;5054698;28;20384;-77
2021/10/17 00:51:23;;;;;;;59.22;39.05;;;205.60;2252.80;;;;;;5065902;28;20471;-78
2021/10/17 00:53:50;;;;;;;63.40;41.17;;;205.50;2252.80;;;;;;5054197;28;20056;-77
2021/10/17 00:56:16;;;;;;;60.90;37.58;;;205.40;2252.80;;;;;;5072443;28;20084;-77
2021/10/17 00:58:42;;;;;;;68.07;39.85;;;205.30;2252.80;;;;;;5055544;28;20108;-77
2021/10/17 01:01:08;;;;;;;64.20;40.03;;;205.30;2252.80;;;;;;5054769;28;20025;-77
2021/10/17 01:03:33;;;;;;;62.30;38.65;;;205.30;2252.80;;;;;;5073453;28;20437;-77
2021/10/17 01:05:59;;;;;;;57.70;40.17;;;205.20;2252.80;;;;;;5080901;28;20028;-78
2021/10/17 01:08:25;;;;;;;63.60;41.17;;;205.30;2252.80;;;;;;5071171;28;20027;-76
2021/10/17 01:10:56;;;;;;;64.55;40.25;;;205.30;2252.80;;;;;;5072552;28;20384;-76
2021/10/17 01:13:23;;;;;;;60.78;38.60;;;205.20;2252.80;;;;;;5066284;28;20489;-76
2021/10/17 01:15:56;;;;;;;60.63;37.47;;;205.20;2252.80;;;;;;5072349;28;20062;-76
2021/10/17 01:18:23;;;;;;;59.58;40.45;;;205.20;2252.80;;;;;;5077294;28;20029;-76
2021/10/17 01:20:50;;;;;;;63.15;40.60;;;205.20;2252.80;;;;;;5083635;28;20111;-76
2021/10/17 01:23:18;;;;;;;57.85;39.17;;;205.10;2252.80;;;;;;5071055;28;20526;-76
2021/10/17 01:25:44;;;;;;;68.43;41.40;;;205.00;2252.80;;;;;;5067196;28;20039;-76
2021/10/17 01:28:10;;;;;;;61.70;39.28;;;205.00;2252.80;;;;;;5062288;28;20020;-76
2021/10/17 01:30:36;;;;;;;55.38;38.35;;;205.00;2252.80;;;;;;5056047;28;20013;-77
2021/10/17 01:33:03;;;;;;;62.35;41.08;;;204.90;2252.80;;;;;;5053568;28;20035;-77
2021/10/17 01:35:29;;;;;;;59.42;40.38;;;204.90;2252.80;;;;;;5061747;28;20036;-76
2021/10/17 01:37:55;;;;;;;60.97;38.55;;;204.90;2252.80;;;;;;5053445;28;20059;-76
2021/10/17 01:40:22;;;;;;;58.00;39.58;;;204.90;2252.80;;;;;;5061337;28;20060;-76
2021/10/17 01:42:48;;;;;;;62.85;40.47;;;204.80;2252.80;;;;;;5065441;28;20079;-76
2021/10/17 01:45:14;;;;;;;59.40;39.00;;;204.80;2252.80;;;;;;5070288;28;20036;-77
2021/10/17 01:47:49;;;;;;;61.10;39.80;;;204.80;2252.80;;;;;;5071676;28;20029;-76
2021/10/17 01:50:16;;;;;;;64.05;41.45;;;204.90;2252.80;;;;;;5071327;28;20052;-76
2021/10/17 01:52:41;;;;;;;57.60;38.03;;;204.90;2252.80;;;;;;5054196;28;20024;-76
2021/10/17 01:55:08;;;;;;;63.92;40.40;;;204.90;2252.80;;;;;;5054725;28;20032;-76
2021/10/17 01:57:34;;;;;;;57.95;38.55;;;204.80;2252.80;;;;;;5070691;28;20039;-76
2021/10/17 02:00:00;;;;;;;57.03;38.28;;;204.80;2252.80;;;;;;5057113;28;20028;-76
2021/10/17 02:02:25;;;;;;;54.85;36.72;;;204.80;2252.80;;;;;;5070565;28;20107;-76
2021/10/17 02:04:51;;;;;;;57.75;39.13;;;204.80;2252.80;;;;;;5072979;28;20024;-76
2021/10/17 02:07:17;;;;;;;64.38;40.92;;;180.10;2252.80;;;;;;5070212;28;20029;-76
2021/10/17 02:09:43;;;;;;;59.25;39.03;;;180.10;2252.80;;;;;;5067171;28;20032;-76
2021/10/17 02:12:09;;;;;;;52.50;36.88;;;204.80;2252.80;;;;;;5071365;28;20025;-76
2021/10/17 02:14:36;;;;;;;58.35;37.92;;;204.80;2252.80;;;;;;5056628;28;20036;-76
2021/10/17 02:17:05;;;;;;;61.85;40.90;;;180.10;2252.80;;;;;;5074767;28;20109;-76
2021/10/17 02:19:31;;;;;;;58.70;39.33;;;180.10;2252.80;;;;;;5061827;28;20033;-76
2021/10/17 02:21:57;;;;;;;61.72;39.55;;;180.10;2252.80;;;;;;5056895;28;20426;-76
2021/10/17 02:24:23;;;;;;;62.03;40.35;;;180.10;2252.80;;;;;;5074182;28;20067;-76
2021/10/17 02:26:49;;;;;;;61.40;39.60;;;180.10;2252.80;;;;;;5074621;28;20356;-76
2021/10/17 02:29:15;;;;;;;60.65;38.15;;;204.80;2252.80;;;;;;5069766;28;20037;-76
2021/10/17 02:31:41;;;;;;;54.53;37.60;;;204.80;2252.80;;;;;;5074805;28;20527;-76
2021/10/17 02:34:07;;;;;;;59.55;38.60;;;180.10;2252.80;;;;;;5074273;28;20027;-76
2021/10/17 02:36:33;;;;;;;52.08;34.85;;;180.10;2252.80;;;;;;5074172;28;20422;-76
2021/10/17 02:38:58;;;;;;;60.25;36.72;;;180.10;2252.80;;;;;;5056722;28;20021;-77
2021/10/17 02:41:24;;;;;;;56.72;37.50;;;180.10;2252.80;;;;;;5072845;28;20036;-76
2021/10/17 02:43:50;;;;;;;54.58;37.28;;;180.10;2252.80;;;;;;5075285;28;20021;-76
2021/10/17 02:46:16;;;;;;;62.85;38.25;;;180.10;2252.80;;;;;;5068245;28;20487;-76
2021/10/17 02:48:42;;;;;;;57.47;37.28;;;180.10;2252.80;;;;;;5075205;28;20029;-76
2021/10/17 02:51:08;;;;;;;51.53;35.03;;;180.10;2252.80;;;;;;5074646;28;20378;-76
2021/10/17 02:53:34;;;;;;;59.58;38.45;;;180.10;2252.80;;;;;;5074230;28;20570;-76
2021/10/17 02:56:00;;;;;;;57.88;38.13;;;180.10;2252.80;;;;;;5056469;28;20060;-76
2021/10/17 02:58:26;;;;;;;58.38;37.95;;;180.10;2252.80;;;;;;5056693;28;20052;-75
2021/10/17 03:00:52;;;;;;;53.35;36.83;;;180.10;2252.80;;;;;;5074368;28;20028;-76
2021/10/17 03:03:18;;;;;;;62.50;37.28;;;180.00;2252.80;;;;;;5056499;28;20046;-75
2021/10/17 03:05:43;;;;;;;52.08;34.58;;;180.00;2252.80;;;;;;5056767;28;20680;-76
2021/10/17 03:08:09;;;;;;;60.33;36.72;;;180.00;2252.80;;;;;;5074203;28;20091;-76
2021/10/17 03:10:35;;;;;;;57.47;36.90;;;180.00;2252.80;;;;;;5074518;28;20031;-76
2021/10/17 03:13:01;;;;;;;58.10;35.42;;;180.00;2252.80;;;;;;5056199;28;20040;-75
2021/10/17 03:15:27;;;;;;;58.20;36.00;;;180.00;2252.80;;;;;;5073404;28;20052;-76
2021/10/17 03:17:54;;;;;;;50.92;33.35;;;180.00;2252.80;;;;;;5055655;28;20407;-76
2021/10/17 03:20:21;;;;;;;55.28;36.47;;;180.00;2252.80;;;;;;5068692;28;20057;-76
2021/10/17 03:22:47;;;;;;;50.85;35.28;;;180.00;2252.80;;;;;;5059954;28;20459;-76
2021/10/17 03:25:12;;;;;;;57.10;37.55;;;180.00;2252.80;;;;;;5074458;28;20039;-76
2021/10/17 03:27:38;;;;;;;53.85;34.13;;;180.00;2252.80;;;;;;5071962;28;20043;-76
2021/10/17 03:30:06;;;;;;;52.55;35.83;;;180.00;2252.80;;;;;;5056123;28;20066;-76
2021/10/17 03:32:32;;;;;;;51.20;32.92;;;180.00;2252.80;;;;;;5056299;28;20390;-77
2021/10/17 03:34:58;;;;;;;50.42;34.67;;;180.00;2252.80;;;;;;5073930;28;20100;-77
2021/10/17 03:37:24;;;;;;;53.45;34.58;;;180.00;2252.80;;;;;;5061181;28;20136;-76
2021/10/17 03:39:49;;;;;;;52.35;33.75;;;180.00;2252.80;;;;;;5071395;28;20028;-76
2021/10/17 03:42:15;;;;;;;52.13;32.65;;;179.90;2252.80;;;;;;5062436;28;20457;-76
2021/10/17 03:44:41;;;;;;;53.22;35.95;;;179.90;2252.80;;;;;;5055515;28;20443;-76
2021/10/17 03:47:07;;;;;;;47.45;33.65;;;179.80;2252.80;;;;;;5073938;28;20074;-76
2021/10/17 03:49:32;;;;;;;55.53;35.47;;;179.90;2252.80;;;;;;5055670;28;20056;-76
2021/10/17 03:51:58;;;;;;;48.67;32.97;;;179.90;2252.80;;;;;;5073784;28;20412;-76
2021/10/17 03:54:24;;;;;;;54.67;36.97;;;179.90;2252.80;;;;;;5073404;28;20028;-76
2021/10/17 03:56:50;;;;;;;45.83;32.28;;;179.90;2252.80;;;;;;5070197;28;20016;-76
2021/10/17 03:59:16;;;;;;;52.97;33.67;;;179.90;2252.80;;;;;;5055274;28;20667;-76
2021/10/17 04:01:41;;;;;;;48.72;34.00;;;179.90;2252.80;;;;;;5067782;28;20380;-76
2021/10/17 04:04:07;;;;;;;51.63;33.55;;;179.90;2252.80;;;;;;5055346;28;20025;-76
2021/10/17 04:06:36;;;;;;;47.25;32.13;;;179.80;2252.80;;;;;;5060511;28;20017;-77
2021/10/17 04:09:02;;;;;;;47.38;33.60;;;179.80;2252.80;;;;;;5055631;28;20017;-76
2021/10/17 04:11:28;;;;;;;49.10;33.60;;;179.80;2252.80;;;;;;5054956;28;20111;-76
2021/10/17 04:13:53;;;;;;;46.13;33.28;;;179.80;2252.80;;;;;;5072775;28;20062;-76
2021/10/17 04:16:19;;;;;;;53.65;33.95;;;179.80;2252.80;;;;;;5072849;28;20161;-76
2021/10/17 04:18:45;;;;;;;51.58;32.03;;;179.80;2252.80;;;;;;5073205;28;20036;-76
2021/10/17 04:21:11;;;;;;;59.22;35.45;;;179.80;2252.80;;;;;;5070454;28;20021;-76
2021/10/17 04:23:36;;;;;;;55.53;34.75;;;179.70;2252.80;;;;;;5056626;28;20115;-76
2021/10/17 04:26:02;;;;;;;51.97;32.78;;;179.70;2252.80;;;;;;5068096;28;20028;-76
2021/10/17 04:28:28;;;;;;;53.72;35.10;;;179.70;2252.80;;;;;;5054197;28;20020;-76
2021/10/17 04:30:54;;;;;;;55.97;35.85;;;179.70;2252.80;;;;;;5072656;28;20031;-76
2021/10/17 04:33:19;;;;;;;50.50;32.65;;;179.60;2252.80;;;;;;5072998;28;20033;-76
2021/10/17 04:35:45;;;;;;;56.05;36.42;;;179.60;2252.80;;;;;;5073002;28;20025;-74
2021/10/17 04:38:14;;;;;;;53.83;33.53;;;179.70;2252.80;;;;;;5072576;28;20024;-74
2021/10/17 04:40:42;;;;;;;59.67;37.88;;;179.60;2252.80;;;;;;5073047;28;20023;-74
2021/10/17 04:43:07;;;;;;;57.50;33.85;;;179.60;2252.80;;;;;;5072280;28;20016;-73
2021/10/17 04:45:37;;;;;;;52.20;35.25;;;179.60;2252.80;;;;;;5072397;28;20111;-74
2021/10/17 04:48:04;;;;;;;53.97;35.63;;;179.60;2252.80;;;;;;5072612;28;20043;-74
2021/10/17 04:50:29;;;;;;;52.42;34.75;;;179.70;2252.80;;;;;;5058691;28;20047;-74
2021/10/17 04:52:55;;;;;;;52.47;34.97;;;179.60;2252.80;;;;;;5072065;28;20543;-74
2021/10/17 04:55:21;;;;;;;51.83;33.33;;;179.60;2252.80;;;;;;5070652;28;20120;-73
2021/10/17 04:57:47;;;;;;;46.13;30.80;;;179.60;2252.80;;;;;;5072503;28;20035;-73
2021/10/17 05:00:13;;;;;;;43.38;30.35;;;179.50;2252.80;;;;;;5068595;28;20368;-74
2021/10/17 05:02:39;;;;;;;42.58;29.30;;;179.60;2252.80;;;;;;5076974;28;20058;-73
2021/10/17 05:05:08;;;;;;;45.08;28.88;;;179.60;2252.80;;;;;;5078199;28;20021;-73
2021/10/17 05:07:34;;;;;;;41.50;26.33;;;179.50;2252.80;;;;;;5072322;28;20025;-74
2021/10/17 05:10:00;;;;;;;41.08;27.27;;;179.50;2252.80;;;;;;5077091;28;20044;-74
2021/10/17 05:12:25;;;;;;;40.17;27.67;;;179.60;2252.80;;;;;;5054978;28;20032;-73
2021/10/17 05:14:51;;;;;;;45.65;26.50;;;179.60;2252.80;;;;;;5072720;28;20037;-73
2021/10/17 05:17:17;;;;;;;41.95;25.35;;;179.60;2252.80;;;;;;5055734;28;20053;-73
2021/10/17 05:19:43;;;;;;;40.65;28.00;;;179.60;2252.80;;;;;;5072830;28;20407;-73
2021/10/17 05:22:09;;;;;;;38.85;26.58;;;179.60;2252.80;;;;;;5071065;28;20036;-73
2021/10/17 05:24:35;;;;;;;36.75;24.27;;;179.70;2252.80;;;;;;5080506;28;20028;-74
2021/10/17 05:27:00;;;;;;;34.65;22.05;;;179.70;2252.80;;;;;;5076594;28;20020;-73
2021/10/17 05:29:26;;;;;;;33.20;21.90;;;179.70;2252.80;;;;;;5053659;28;20086;-73
2021/10/17 05:31:52;;;;;;;39.40;22.92;;;179.70;2252.80;;;;;;5070552;28;20033;-73
2021/10/17 05:34:18;;;;;;;41.95;26.00;;;179.70;2252.80;;;;;;5065266;28;20358;-74
2021/10/17 05:36:44;;;;;;;42.00;26.33;;;179.70;2252.80;;;;;;5071531;28;20459;-73
2021/10/17 05:39:10;;;;;;;42.25;28.25;;;179.80;2252.80;;;;;;5069904;28;20110;-73
2021/10/17 05:41:36;;;;;;;53.80;32.88;;;179.80;2252.80;;;;;;5070481;28;20044;-74
2021/10/17 05:44:02;;;;;;;53.05;34.03;;;179.90;2252.80;;;;;;5071704;28;20059;-73
2021/10/17 05:46:28;;;;;;;41.17;28.05;;;179.90;2252.80;;;;;;5071917;28;20020;-73
2021/10/17 05:48:54;;;;;;;44.50;25.73;;;180.00;2252.80;;;;;;5071872;28;20029;-73
2021/10/17 05:51:20;;;;;;;38.88;24.90;;;180.00;2252.80;;;;;;5065076;28;20032;-74
2021/10/17 05:53:45;;;;;;;37.85;24.05;;;180.00;2252.80;;;;;;5071472;28;20090;-74
2021/10/17 05:56:11;;;;;;;40.15;24.83;;;180.00;2252.80;;;;;;5054025;28;20036;-73
2021/10/17 05:58:37;;;;;;;40.20;23.83;;;180.10;2252.80;;;;;;5071555;28;20028;-73
2021/10/17 06:01:03;;;;;;;33.55;20.50;;;180.10;2252.80;;;;;;5057977;28;20506;-74
2021/10/17 06:03:29;;;;;;;30.85;20.80;;;180.10;2252.80;;;;;;5056995;28;20041;-73
2021/10/17 06:06:05;;;;;;;34.00;21.17;;;204.80;2252.80;;;;;;5061781;28;20070;-73
2021/10/17 06:08:31;;;;;;;39.92;21.95;;;204.80;2252.80;;;;;;5059850;28;20020;-74
2021/10/17 06:10:57;;;;;;;34.42;21.80;;;204.90;2252.80;;;;;;5073615;28;20101;-74
2021/10/17 06:13:23;;;;;;;36.38;21.52;;;204.90;2252.80;;;;;;5059536;28;20033;-73
2021/10/17 06:15:49;;;;;;;32.50;21.08;;;205.00;2252.80;;;;;;5085119;28;20059;-73
2021/10/17 06:18:15;;;;;;;30.23;21.17;;;205.00;2252.80;;;;;;5078009;28;20491;-73
2021/10/17 06:20:41;;;;;;;38.40;23.33;;;205.10;2252.80;;;;;;5080844;28;20032;-73
2021/10/17 06:23:06;;;;;;;37.35;21.35;;;205.20;2252.80;;;;;;5059537;28;20020;-74
2021/10/17 06:25:32;;;;;;;29.55;19.30;;;205.20;2252.80;;;;;;5077455;28;20056;-73
2021/10/17 06:27:59;;;;;;;29.38;18.80;;;205.30;2252.80;;;;;;5057793;28;20105;-73
2021/10/17 06:30:26;;;;;;;27.63;17.23;;;205.40;2252.80;;;;;;5077110;28;20044;-73
2021/10/17 06:32:52;;;;;;;25.40;17.77;;;205.40;2252.80;;;;;;5068975;28;20038;-73
2021/10/17 06:35:17;;;;;;;41.90;23.25;;;205.40;2252.80;;;;;;5053661;28;20033;-73
2021/10/17 06:37:43;;;;;;;26.77;17.98;;;205.50;2252.80;;;;;;5071189;28;20108;-74
2021/10/17 06:40:10;;;;;;;21.55;15.18;;;205.60;2252.80;;;;;;5070441;28;20111;-73
2021/10/17 06:42:36;;;;;;;24.30;16.58;;;205.60;2252.80;;;;;;5070886;28;20115;-73
2021/10/17 06:45:02;;;;;;;25.13;14.70;;;205.60;2252.80;;;;;;5071394;28;20052;-74
2021/10/17 06:47:27;;;;;;;30.10;18.55;;;205.70;2252.80;;;;;;5060553;28;20029;-73
2021/10/17 06:49:53;;;;;;;27.15;17.08;;;230.40;2252.80;;;;;;5071154;28;20056;-73
2021/10/17 06:52:19;;;;;;;26.27;15.55;;;230.50;2252.80;;;;;;5056538;28;20502;-75
2021/10/17 06:54:44;;;;;;;26.05;16.83;;;230.50;2252.80;;;;;;5074885;28;20035;-76
2021/10/17 06:57:10;;;;;;;24.05;15.55;;;230.60;2252.80;;;;;;5074162;28;20111;-73
2021/10/17 06:59:36;;;;;;;31.50;18.42;;;230.70;2252.80;;;;;;5055943;28;20041;-74
2021/10/17 07:02:02;;;;;;;32.53;20.80;;;230.80;2252.80;;;;;;5056843;28;20020;-74
2021/10/17 07:04:27;;;;;;;31.33;18.83;;;230.90;2252.80;;;;;;5047796;28;20021;-76
2021/10/17 07:06:53;;;;;;;32.70;17.48;;;231.00;2252.80;;;;;;5064519;28;20020;-76
2021/10/17 07:09:19;;;;;;;35.22;16.45;;;231.10;2252.80;;;;;;5090161;28;20058;-75
2021/10/17 07:11:45;;;;;;;23.67;15.20;;;231.20;2252.80;;;;;;5068763;28;20086;-76
2021/10/17 07:14:10;;;;;;;25.13;15.35;;;256.00;2252.80;;;;;;5084183;28;20109;-76
2021/10/17 07:16:36;;;;;;;24.85;15.05;;;256.00;2252.80;;;;;;5079788;28;20186;-80
2021/10/17 07:19:02;;;;;;;19.17;13.13;;;256.10;2252.80;;;;;;5061590;28;20036;-76
2021/10/17 07:21:28;;;;;;;24.05;15.68;;;256.30;2252.80;;;;;;5070244;28;20029;-76
2021/10/17 07:23:54;;;;;;;26.30;16.83;;;256.30;2252.80;;;;;;5076967;28;20028;-78
2021/10/17 07:26:19;;;;;;;28.88;16.73;;;256.50;2252.80;;;;;;5065008;28;20041;-77
2021/10/17 07:28:45;;;;;;;24.83;15.38;;;256.70;2252.80;;;;;;5058598;28;20020;-78
2021/10/17 07:31:11;;;;;;;25.38;14.82;;;256.90;2252.80;;;;;;5087395;28;20024;-78
2021/10/17 07:33:37;;;;;;;25.38;15.57;;;281.80;2278.40;;;;;;5075356;28;20471;-80
2021/10/17 07:36:03;;;;;;;25.15;14.23;;;282.00;2278.40;;;;;;5058462;28;20032;-76
2021/10/17 07:38:29;;;;;;;24.08;15.55;;;282.30;2278.40;;;;;;5057010;28;20085;-77
2021/10/17 07:40:56;;;;;;;17.23;13.30;;;307.20;2304.00;;;;;;5057380;28;20032;-77
2021/10/17 07:43:22;;;;;;;21.08;13.50;;;307.40;2304.00;;;;;;5076562;28;20035;-79
2021/10/17 07:45:48;;;;;;;20.27;14.13;;;307.70;2304.00;;;;;;5073284;28;20013;-77
2021/10/17 07:48:14;;;;;;;21.98;16.20;;;307.90;2304.00;;;;;;5075187;28;20082;-79
2021/10/17 07:50:40;;;;;;;20.40;15.18;;;332.80;2329.60;;;;;;5055396;28;20020;-75
2021/10/17 07:53:06;;;;;;;24.17;14.70;;;332.90;2329.60;;;;;;5059579;28;20035;-76
2021/10/17 07:55:32;;;;;;;23.67;14.90;;;333.00;2329.60;;;;;;5055882;28;20043;-76
2021/10/17 07:57:58;;;;;;;24.85;13.85;;;333.30;2329.60;;;;;;5056061;28;20483;-76
2021/10/17 08:00:26;;;;;;;23.02;15.18;;;333.60;2329.60;;;;;;5074140;28;20530;-76
2021/10/17 08:02:52;;;;;;;24.17;15.13;;;333.70;2329.60;;;;;;5071987;28;20107;-75
2021/10/17 08:05:18;;;;;;;22.17;16.15;;;358.40;2329.60;;;;;;5073119;28;20550;-74
2021/10/17 08:07:44;;;;;;;27.67;16.20;;;358.70;2329.60;;;;;;5072778;28;20077;-74
2021/10/17 08:10:12;;;;;;;23.27;15.82;;;359.00;2329.60;;;;;;5055717;28;20016;-74
2021/10/17 08:12:38;;;;;;;26.10;15.55;;;359.10;2329.60;;;;;;5072685;28;20043;-75
2021/10/17 08:15:05;;;;;;;24.90;17.50;;;359.20;2329.60;;;;;;5057142;28;20403;-75
2021/10/17 08:17:30;;;;;;;24.38;17.10;;;384.00;2329.60;;;;;;5077403;28;20049;-75
2021/10/17 08:19:57;;;;;;;29.45;16.98;;;384.00;2329.60;;;;;;5063538;28;20039;-75
2021/10/17 08:22:23;;;;;;;23.45;15.77;;;384.30;2329.60;;;;;;5068590;28;20120;-75
2021/10/17 08:24:49;;;;;;;23.20;15.10;;;384.60;2329.60;;;;;;5072839;28;20406;-74
2021/10/17 08:27:15;;;;;;;20.48;15.25;;;409.60;2355.20;;;;;;5060142;28;20020;-75
2021/10/17 08:29:41;;;;;;;19.15;13.52;;;409.90;2355.20;;;;;;5060185;28;20073;-75
2021/10/17 08:32:07;;;;;;;20.23;15.27;;;410.20;2355.20;;;;;;5067911;28;20028;-75
2021/10/17 08:34:33;;;;;;;20.95;13.55;;;410.50;2355.20;;;;;;5065613;28;20070;-75
2021/10/17 08:36:59;;;;;;;20.20;13.80;;;410.40;2355.20;;;;;;5070041;28;20028;-75
2021/10/17 08:39:25;;;;;;;17.58;14.32;;;435.40;2355.20;;;;;;5064642;28;20021;-75
2021/10/17 08:41:50;;;;;;;16.38;13.30;;;435.40;2355.20;;;;;;5061975;28;20043;-75
2021/10/17 08:44:17;;;;;;;21.23;15.00;;;435.90;2355.20;;;;;;5071884;28;20383;-75
2021/10/17 08:46:46;;;;;;;33.65;15.77;;;460.80;2380.80;;;;;;5072555;28;20024;-75
2021/10/17 08:49:12;;;;;;;25.30;14.90;;;461.20;2380.80;;;;;;5072948;28;20032;-75
2021/10/17 08:51:38;;;;;;;16.80;11.63;;;461.50;2380.80;;;;;;5054638;28;20025;-76
2021/10/17 08:54:06;;;;;;;17.23;12.40;;;461.50;2380.80;;;;;;5072443;28;20025;-75
2021/10/17 08:56:33;;;;;;;18.48;12.95;;;461.60;2380.80;;;;;;5076021;28;20384;-75
2021/10/17 08:58:59;;;;;;;19.80;11.90;;;461.70;2380.80;;;;;;5073486;28;20017;-76
2021/10/17 09:01:33;;;;;;;19.73;12.63;;;461.50;2380.80;;;;;;5071384;28;20040;-75
2021/10/17 09:04:00;;;;;;;19.67;11.68;;;486.40;2380.80;;;;;;5053798;28;20081;-76
2021/10/17 09:06:32;;;;;;;24.48;13.20;;;486.60;2380.80;;;;;;5053897;28;20403;-76
2021/10/17 09:09:17;;;;;;;18.23;11.82;;;486.70;2380.80;;;;;;5070143;28;20028;-76
2021/10/17 09:11:52;;;;;;;13.18;10.30;;;487.10;2380.80;;;;;;5053882;28;20123;-76
2021/10/17 09:14:23;;;;;;;24.35;12.77;;;512.10;2380.80;;;;;;5057668;28;20475;-76
2021/10/17 09:16:51;;;;;;;15.75;11.57;;;512.10;2380.80;;;;;;5069111;28;20056;-75
2021/10/17 09:19:26;;;;;;;14.13;9.73;;;512.60;2380.80;;;;;;5051286;28;20035;-76
2021/10/17 09:22:07;;;;;;;14.45;10.88;;;512.60;2380.80;;;;;;5070927;28;20077;-76
2021/10/17 09:24:47;;;;;;;12.63;9.93;;;512.90;2380.80;;;;;;5072745;28;20093;-76
2021/10/17 09:27:23;;;;;;;13.18;10.93;;;512.70;2380.80;;;;;;5059937;28;20028;-76
2021/10/17 09:29:54;;;;;;;17.00;10.30;;;538.00;2406.40;;;;;;5052877;28;20050;-76
2021/10/17 09:32:22;;;;;;;16.13;9.50;;;538.40;2406.40;;;;;;5067859;28;20028;-75
2021/10/17 09:35:03;;;;;;;15.50;9.60;;;563.20;2406.40;;;;;;5054882;28;20055;-75
2021/10/17 09:37:38;;;;;;;11.88;9.27;;;563.40;2304.00;;;;;;5052370;28;20514;-76
2021/10/17 09:40:16;;;;;;;14.43;8.38;;;563.70;2278.40;;;;;;5052293;28;20454;-74
2021/10/17 09:42:42;;;;;;;13.40;10.23;;;563.80;2278.40;;;;;;5063559;28;20529;-74
2021/10/17 09:45:23;;;;;;;14.50;8.93;;;563.90;2227.20;;;;;;5048537;28;20049;-74
2021/10/17 09:47:49;;;;;;;15.63;8.02;;;564.10;2176.00;;;;;;5070212;28;20054;-74
2021/10/17 09:50:17;;;;;;;14.13;9.02;;;589.00;2073.60;;;;;;5051202;28;20094;-74
2021/10/17 09:53:01;;;;;;;18.38;10.25;;;589.50;2022.40;;;;;;5052966;28;20029;-74
2021/10/17 09:55:27;;;;;;;11.52;8.18;;;589.40;2022.40;;;;;;5070127;28;20028;-74
2021/10/17 09:57:53;;;;;;;13.13;9.50;;;589.60;1920.00;;;;;;5053133;28;20039;-74
2021/10/17 10:00:20;;;;;;;10.75;7.47;;;589.20;1971.20;;;;;;5074249;28;20032;-74
2021/10/17 10:02:51;;;;;;;10.18;7.65;;;589.50;1894.40;;;;;;5070530;28;20049;-75
2021/10/17 10:05:27;;;;;;;12.20;8.93;;;589.50;1894.40;;;;;;5057815;28;20667;-76
2021/10/17 10:08:03;;;;;;;11.20;7.68;;;589.30;1920.00;;;;;;5060593;28;20025;-74
2021/10/17 10:10:31;;;;;;;9.02;6.00;;;589.40;1868.80;;;;;;5054133;28;20086;-74
2021/10/17 10:13:02;;;;;;;9.38;6.05;;;589.40;1868.80;;;;;;5070755;28;20391;-75
2021/10/17 10:15:29;;;;;;;9.25;4.95;;;614.40;1766.40;;;;;;5054082;28;20055;-75
2021/10/17 10:17:56;;;;;;;9.68;6.55;;;614.70;1689.60;;;;;;5061128;28;20507;-76
2021/10/17 10:20:23;;;;;;;9.48;5.53;;;614.80;1715.20;;;;;;5070034;28;20025;-76
2021/10/17 10:22:51;;;;;;;8.82;4.82;;;614.90;1664.00;;;;;;5051390;28;20021;-76
2021/10/17 10:25:17;;;;;;;7.13;5.32;;;614.70;1638.40;;;;;;5051909;28;20040;-75
2021/10/17 10:27:44;;;;;;;7.72;5.28;;;614.80;1587.20;;;;;;5055336;28;20037;-75
2021/10/17 10:30:24;;;;;;;5.97;4.50;;;615.10;1587.20;;;;;;5056107;28;20119;-76
2021/10/17 10:33:09;;;;;;;9.30;6.10;;;640.00;1561.60;;;;;;5073005;28;20028;-77
2021/10/17 10:35:35;;;;;;;7.30;5.20;;;640.00;1561.60;;;;;;5072723;28;20430;-77
2021/10/17 10:38:01;;;;;;;10.00;5.68;;;640.00;1536.00;;;;;;5058704;28;20029;-77
2021/10/17 10:40:28;;;;;;;11.07;6.72;;;640.30;1561.60;;;;;;5071087;28;20036;-77
2021/10/17 10:42:54;;;;;;;8.63;5.50;;;640.10;1536.00;;;;;;5059706;28;20395;-77
2021/10/17 10:45:32;;;;;;;8.98;6.10;;;615.10;1612.80;;;;;;5072882;28;20021;-76
2021/10/17 10:48:10;;;;;;;11.43;5.93;;;640.00;1561.60;;;;;;5071891;28;20554;-75
2021/10/17 10:50:57;;;;;;;8.57;5.25;;;640.60;1510.40;;;;;;5070573;28;20036;-77
2021/10/17 10:53:46;;;;;;;10.75;6.97;;;665.60;1510.40;;;;;;5056134;28;20032;-78
2021/10/17 10:56:37;;;;;;;9.27;6.78;;;640.80;1510.40;;;;;;5070878;28;20029;-76
2021/10/17 10:59:03;;;;;;;9.80;6.65;;;640.30;1536.00;;;;;;5062874;28;20044;-77
2021/10/17 11:02:02;;;;;;;8.93;6.75;;;640.50;1510.40;;;;;;5058220;28;20066;-76
2021/10/17 11:04:49;;;;;;;9.15;6.25;;;640.40;1536.00;;;;;;5051828;28;20513;-77
2021/10/17 11:07:23;;;;;;;8.75;6.07;;;640.80;1484.80;;;;;;5072274;28;20037;-76
2021/10/17 11:09:50;;;;;;;9.82;6.30;;;640.80;1510.40;;;;;;5052341;28;20029;-77
2021/10/17 11:12:39;;;;;;;18.33;8.95;;;640.50;1536.00;;;;;;5074378;28;20055;-77
2021/10/17 11:15:10;;;;;;;12.88;7.00;;;640.30;1536.00;;;;;;5055078;28;20020;-75
2021/10/17 11:17:36;;;;;;;11.27;6.72;;;640.40;1536.00;;;;;;5056006;28;20074;-77
2021/10/17 11:20:05;;;;;;;11.02;7.57;;;640.80;1510.40;;;;;;5073476;28;20025;-77
2021/10/17 11:22:37;;;;;;;9.32;6.45;;;666.00;1510.40;;;;;;5078278;28;20055;-77
2021/10/17 11:25:04;;;;;;;10.45;6.00;;;666.10;1510.40;;;;;;5055565;28;20107;-77
2021/10/17 11:27:30;;;;;;;9.32;5.00;;;665.80;1510.40;;;;;;5073227;28;20032;-77
2021/10/17 11:29:55;;;;;;;7.72;5.82;;;665.90;1484.80;;;;;;5052390;28;20032;-76
2021/10/17 11:32:22;;;;;;;8.48;5.63;;;666.30;1459.20;;;;;;5054028;28;20028;-77
2021/10/17 11:34:58;;;;;;;7.47;4.50;;;666.10;1484.80;;;;;;5054989;28;20407;-77
2021/10/17 11:37:26;;;;;;;7.00;5.72;;;666.30;1510.40;;;;;;5055963;28;20029;-75
2021/10/17 11:39:52;;;;;;;9.68;5.85;;;691.20;1484.80;;;;;;5071144;28;20492;-77
2021/10/17 11:42:18;;;;;;;9.55;5.80;;;666.20;1536.00;;;;;;5055387;28;20554;-77
2021/10/17 11:44:43;;;;;;;8.10;5.07;;;666.30;1510.40;;;;;;5057106;28;20147;-78
2021/10/17 11:47:09;;;;;;;11.95;5.68;;;666.30;1484.80;;;;;;5055345;28;20112;-76
2021/10/17 11:49:35;;;;;;;6.45;4.78;;;666.30;1484.80;;;;;;5072933;28;20418;-75
2021/10/17 11:52:04;;;;;;;9.30;5.03;;;691.20;1459.20;;;;;;5073904;28;20025;-77
2021/10/17 11:54:47;;;;;;;11.20;5.43;;;666.50;1433.60;;;;;;5074074;28;20017;-76
2021/10/17 11:57:33;;;;;;;7.43;5.22;;;691.50;1408.00;;;;;;5071388;28;20028;-79
2021/10/17 12:00:04;;;;;;;6.82;5.07;;;692.00;1382.40;;;;;;5074889;28;20099;-78
2021/10/17 12:02:37;;;;;;;6.43;4.15;;;692.00;1382.40;;;;;;5069475;28;20032;-78